CDT,Max TemperatureF,Mean TemperatureF,Min TemperatureF,Max Dew PointF,MeanDew PointF,Min DewpointF,Max Humidity, Mean Humidity, Min Humidity, Max Sea Level PressureIn, Mean Sea Level PressureIn, Min Sea Level PressureIn, Max VisibilityMiles, Mean VisibilityMiles, Min VisibilityMiles, Max Wind SpeedMPH, Mean Wind SpeedMPH, Max Gust SpeedMPH,PrecipitationIn, CloudCover, Events, WindDirDegrees
2012-9-1,86,74,62,72,65,57,94,77,48,30.06,30.02,29.98,10,10,10,10,3,16,0.00,,,34
2012-9-2,87,71,55,68,61,52,94,73,43,30.02,29.96,29.91,10,10,10,8,1,,0.00,,,153
2012-9-3,82,72,62,72,66,59,94,84,65,30.03,29.94,29.89,10,8,1,9,1,18,0.00,,,120
2012-9-4,91,76,62,77,68,61,94,76,41,29.92,29.86,29.74,10,8,0,12,3,16,0.00,,,199
2012-9-5,82,72,62,72,62,54,94,74,37,29.89,29.85,29.76,10,10,7,18,7,29,0.00,,,330
2012-9-6,,,,,,,,,,,,,,,,,,,,,,
2012-9-7,,,,,,,,,,,,,,,,,,,,,,
2012-9-8,,,,,,,,,,,,,,,,,,,,,,
2012-9-9,,,,,,,,,,,,,,,,,,,,,,
2012-9-10,,,,,,,,,,,,,,,,,,,,,,
2012-9-11,,,,,,,,,,,,,,,,,,,,,,
2012-9-12,75,63,50,59,51,43,88,69,48,30.30,30.17,30.07,10,9,1,22,13,36,0.00,,,14
2012-9-13,64,56,48,52,47,45,93,80,56,30.43,30.37,30.29,10,10,10,13,5,24,0.00,,,29
2012-9-14,75,58,42,57,43,36,94,63,24,30.38,30.34,30.29,10,10,5,14,1,76,0.00,,,181
2012-9-15,75,58,42,54,46,39,88,67,31,30.30,30.22,30.12,10,10,10,16,4,18,0.00,,,182
2012-9-16,73,60,48,63,54,45,88,79,65,30.11,30.02,29.94,10,10,10,14,5,21,0.00,,,193
2012-9-17,62,53,44,55,47,36,94,80,37,30.06,29.99,29.93,10,8,0,17,4,22,0.00,,,353
2012-9-18,64,50,37,46,36,28,93,65,26,30.12,30.05,29.97,10,10,10,10,3,,0.00,,,313
2012-9-19,82,66,50,52,40,25,82,49,17,30.00,29.88,29.80,10,10,10,17,9,25,0.00,,,220
2012-9-20,69,56,42,46,36,25,81,55,20,30.05,30.00,29.97,10,10,7,12,2,18,0.00,,,308
2012-9-21,69,56,42,48,39,27,87,55,23,29.95,29.87,29.80,10,10,7,17,5,24,0.00,,,293
2012-9-22,59,46,33,41,31,25,81,58,31,30.29,30.19,29.93,10,10,10,16,7,23,0.00,,,330
2012-9-23,64,46,28,43,29,21,93,62,19,30.37,30.29,30.23,10,10,4,7,1,,0.00,,,339
2012-9-24,75,55,35,48,38,30,87,61,24,30.23,30.03,29.87,10,10,7,15,3,21,0.00,0,,193
2012-9-25,84,63,42,59,45,36,94,63,19,29.97,29.86,29.82,10,10,2,6,0,,0.00,0,,349
2012-9-26,75,58,42,46,35,19,82,51,13,30.17,30.06,29.94,10,10,4,9,3,,0.00,0,,13
2012-9-27,75,54,33,46,33,14,87,59,10,30.23,30.18,30.14,10,10,4,4,0,,0.00,0,,115
2012-9-28,73,54,35,54,42,32,93,69,33,30.23,30.18,30.14,10,10,7,8,1,,0.00,0,,184
2012-9-29,80,58,37,59,41,36,93,64,20,30.20,30.13,30.05,10,10,7,5,0,,0.00,0,,315
2012-9-30,82,62,42,55,43,37,88,60,20,30.06,29.98,29.92,10,10,10,6,0,,0.00,0,,329